Praha, Texas
Current Conditions -  °F | °C
As of 8:15 AM on Monday 20 Oct 2014 (Local Time) from K3T5 Reporting Station
Haze Haze  
Wind Chill: 63°   Ceiling: Unl
Heat Index: 63°   Visibility: 5mi
Dew Point: 62°   Wind: 0mph
Humidity: 97%   Direction: NA
Pressure: 30.04"   Gusts: NA
Location:  29.7626°N, 97.1228°W
Report Text: K3T5 201315Z AUTO 00000KT 5SM BR CLR 17/17 A3004 RMK AO2 T01730168
Loading
Personal Weather Stations






























Interactive Weather Map
Tropical Storm Tracking
New forecast layout! Learn more

10-Day Weather Forecast

Advertisements
Track Severe Weather on mobile